This is the latest recevied weather packets stored in our database for station/object N9CQL. If no packets are shown the sender has not sent any weather packets the latest 10 day(s).
| Time | Temp. | Humidity | Pressure | Rain* | Wind** | Luminosity | Snow |
|---|---|---|---|---|---|---|---|
| 1777222652 | 13.89° C | 76% | 1017.8 hPa | 0 mm | - | 519 W/m² | - |
| 1777222349 | 13.89° C | 77% | 1017.7 hPa | 0 mm | - | 423 W/m² | - |
| 1777222048 | 13.89° C | 76% | 1018 hPa | 0 mm | - | 422 W/m² | - |
| 1777221743 | 13.33° C | 78% | 1017.8 hPa | 0 mm | - | 384 W/m² | - |
| 1777221440 | 13.89° C | 76% | 1017.7 hPa | 0 mm | - | 321 W/m² | - |
| 1777221138 | 13.33° C | 79% | 1017.9 hPa | 0 mm | - | 324 W/m² | - |
| 1777220833 | 13.33° C | 80% | 1017.9 hPa | 0 mm | - | 345 W/m² | - |
| 1777220529 | 12.78° C | 80% | 1017.9 hPa | 0 mm | - | 270 W/m² | - |
| 1777220224 | 12.78° C | 81% | 1017.8 hPa | 0 mm | - | 212 W/m² | - |
| 1777219920 | 12.22° C | 81% | 1018 hPa | 0 mm | - | 252 W/m² | - |
| 1777219617 | 11.67° C | 82% | 1018 hPa | 0 mm | - | 233 W/m² | - |
| 1777219315 | 11.67° C | 82% | 1018.1 hPa | 0 mm | - | 232 W/m² | - |
| 1777219010 | 11.67° C | 83% | 1018 hPa | 0 mm | - | 185 W/m² | - |
| 1777218706 | 11.67° C | 83% | 1018.1 hPa | 0 mm | - | 206 W/m² | - |
| 1777218402 | 12.22° C | 81% | 1017.9 hPa | 0 mm | - | 193 W/m² | - |
| 1777218098 | 11.67° C | 82% | 1018.1 hPa | 0 mm | - | 185 W/m² | - |
| 1777217793 | 12.22° C | 82% | 1018 hPa | 0 mm | - | 214 W/m² | - |
| 1777217490 | 11.67° C | 83% | 1018.1 hPa | 0 mm | - | 194 W/m² | - |
| 1777217186 | 11.11° C | 84% | 1018.1 hPa | 0 mm | - | 195 W/m² | - |
| 1777216883 | 11.67° C | 83% | 1017.7 hPa | 0 mm | - | 177 W/m² | - |
| 1777216579 | 11.67° C | 84% | 1017.9 hPa | 0 mm | - | 191 W/m² | - |
| 1777216275 | 11.67° C | 84% | 1017.9 hPa | 0 mm | - | 162 W/m² | - |
| 1777215974 | 11.11° C | 84% | 1017.7 hPa | 0 mm | - | 170 W/m² | - |
| 1777215670 | 11.67° C | 85% | 1017.8 hPa | 0 mm | - | 163 W/m² | - |
| 1777215364 | 11.11° C | 85% | 1017.5 hPa | 0 mm | - | 151 W/m² | - |
* Rain latest hour (hover to see other rain measurements)
** Current wind speed in m/s (hover to see current wind gust speed)